Time;durP1;ratioP1;P1;durP2;ratioP2;P2;SDS_P1;SDS_P2;PMS_P1;PMS_P2;Temp;Humidity;BMP_temperature;BMP_pressure;BME280_temperature;BME280_humidity;BME280_pressure;Samples;Min_cycle;Max_cycle;Signal;HPM_P1;HPM_P2
2022/05/12 00:01:00;;;;;;;1.73;1.30;;;25.20;40.10;;;;;;5047099;28;20535;-82
2022/05/12 00:03:29;;;;;;;3.17;1.30;;;25.20;40.30;;;;;;5047789;28;20475;-82
2022/05/12 00:05:57;;;;;;;2.80;1.40;;;25.20;40.20;;;;;;5046925;28;20538;-82
2022/05/12 00:08:25;;;;;;;3.93;1.50;;;25.20;40.30;;;;;;5047885;28;20447;-82
2022/05/12 00:10:53;;;;;;;1.23;1.00;;;25.10;40.20;;;;;;5058151;28;20482;-83
2022/05/12 00:13:22;;;;;;;1.30;1.20;;;25.10;40.30;;;;;;5065306;28;20460;-81
2022/05/12 00:15:52;;;;;;;1.40;1.10;;;25.10;40.30;;;;;;5058313;28;20533;-82
2022/05/12 00:18:21;;;;;;;3.27;1.00;;;25.10;40.30;;;;;;5049498;28;20443;-82
2022/05/12 00:20:49;;;;;;;1.97;1.20;;;25.10;40.20;;;;;;5063534;28;20500;-82
2022/05/12 00:23:19;;;;;;;1.13;1.03;;;25.00;40.20;;;;;;5066303;28;20466;-83
2022/05/12 00:25:47;;;;;;;2.67;1.30;;;25.10;40.40;;;;;;5066638;28;20504;-82
2022/05/12 00:28:16;;;;;;;3.07;1.20;;;25.00;40.20;;;;;;5066731;28;20520;-83
2022/05/12 00:30:46;;;;;;;1.70;1.37;;;25.00;40.40;;;;;;5065900;28;20463;-83
2022/05/12 00:33:14;;;;;;;2.20;1.23;;;25.00;40.30;;;;;;5065635;28;20953;-83
2022/05/12 00:35:42;;;;;;;1.43;1.10;;;25.00;40.40;;;;;;5064896;28;20807;-83
2022/05/12 00:38:10;;;;;;;1.60;1.30;;;24.90;40.20;;;;;;5065843;28;20425;-82
2022/05/12 00:40:39;;;;;;;0.97;0.97;;;24.90;40.60;;;;;;5063267;28;20473;-82
2022/05/12 00:43:08;;;;;;;1.73;1.10;;;24.90;40.50;;;;;;5062500;28;20512;-82
2022/05/12 00:45:37;;;;;;;1.67;1.23;;;24.90;40.40;;;;;;5062062;28;20481;-82
2022/05/12 00:48:07;;;;;;;1.93;1.40;;;24.90;40.30;;;;;;5064256;28;20419;-82
2022/05/12 00:50:37;;;;;;;2.60;1.30;;;24.90;40.40;;;;;;5064547;28;20500;-83
2022/05/12 00:53:05;;;;;;;1.43;1.10;;;24.80;40.30;;;;;;5064564;28;20446;-82
2022/05/12 00:55:34;;;;;;;1.93;1.03;;;24.80;40.30;;;;;;5063495;28;20442;-82
2022/05/12 00:58:03;;;;;;;1.40;0.97;;;24.80;40.30;;;;;;5064775;28;20451;-82
2022/05/12 01:00:31;;;;;;;1.40;1.00;;;24.80;40.40;;;;;;5063157;28;20497;-81
2022/05/12 01:03:01;;;;;;;2.30;1.13;;;24.80;40.40;;;;;;5044683;28;20514;-82
2022/05/12 01:05:30;;;;;;;1.60;1.00;;;24.70;40.40;;;;;;5056779;28;20450;-81
2022/05/12 01:07:58;;;;;;;1.40;1.13;;;24.60;40.50;;;;;;5063215;28;20447;-82
2022/05/12 01:10:27;;;;;;;1.20;1.03;;;24.60;40.50;;;;;;5062251;28;20552;-82
2022/05/12 01:12:55;;;;;;;1.53;1.07;;;24.60;40.50;;;;;;5061653;28;20424;-82
2022/05/12 01:15:24;;;;;;;4.30;1.30;;;24.50;40.60;;;;;;5061912;28;20489;-82
2022/05/12 01:18:03;;;;;;;2.30;1.00;;;24.50;40.80;;;;;;5060959;28;20457;-82
2022/05/12 01:20:33;;;;;;;1.40;1.30;;;24.40;40.70;;;;;;5061914;28;20445;-82
2022/05/12 01:23:02;;;;;;;1.03;0.93;;;24.30;40.70;;;;;;5061334;28;20483;-82
2022/05/12 01:25:32;;;;;;;1.47;1.10;;;24.30;41.00;;;;;;5061212;28;20505;-82
2022/05/12 01:28:00;;;;;;;1.83;1.10;;;24.30;40.80;;;;;;5062750;28;20447;-82
2022/05/12 01:30:28;;;;;;;3.10;1.00;;;24.30;41.00;;;;;;5061673;28;20437;-82
2022/05/12 01:32:57;;;;;;;1.10;1.00;;;24.20;40.80;;;;;;5062305;28;20418;-82
2022/05/12 01:35:25;;;;;;;2.40;1.00;;;24.20;41.00;;;;;;5065475;28;20477;-83
2022/05/12 01:37:53;;;;;;;1.20;0.80;;;24.20;41.00;;;;;;5067523;28;20413;-83
2022/05/12 01:40:23;;;;;;;3.10;1.20;;;24.20;41.10;;;;;;5067158;28;20470;-83
2022/05/12 01:42:52;;;;;;;1.57;1.20;;;24.20;41.20;;;;;;5067693;28;20449;-83
2022/05/12 01:45:21;;;;;;;2.77;1.10;;;24.10;41.10;;;;;;5064934;28;20531;-83
2022/05/12 01:47:50;;;;;;;3.37;1.33;;;24.10;41.10;;;;;;5059403;28;20511;-83
2022/05/12 01:50:19;;;;;;;1.57;1.20;;;24.10;41.20;;;;;;5058804;28;20512;-83
2022/05/12 01:52:47;;;;;;;1.30;1.20;;;24.10;41.10;;;;;;5055714;28;20464;-83
2022/05/12 01:55:15;;;;;;;1.20;1.10;;;24.00;41.10;;;;;;5054637;28;20470;-83
2022/05/12 01:57:43;;;;;;;2.10;1.00;;;24.10;41.00;;;;;;5055021;28;20413;-83
2022/05/12 02:00:15;;;;;;;1.70;1.13;;;24.00;41.20;;;;;;5054741;28;20494;-83
2022/05/12 02:02:43;;;;;;;1.20;1.10;;;24.00;41.20;;;;;;5055006;28;20418;-83
2022/05/12 02:05:11;;;;;;;2.20;1.20;;;23.90;41.30;;;;;;5054688;28;20477;-83
2022/05/12 02:07:40;;;;;;;1.20;1.10;;;23.90;41.20;;;;;;5054371;28;20462;-83
2022/05/12 02:10:10;;;;;;;1.10;1.00;;;23.90;41.30;;;;;;5054715;28;20490;-83
2022/05/12 02:12:38;;;;;;;2.40;1.00;;;23.90;41.30;;;;;;5055073;28;20443;-83
2022/05/12 02:15:07;;;;;;;1.00;1.00;;;23.90;41.30;;;;;;5054440;28;20489;-84
2022/05/12 02:17:38;;;;;;;1.33;1.10;;;23.80;41.40;;;;;;5055020;28;20853;-83
2022/05/12 02:20:07;;;;;;;1.10;1.00;;;23.80;41.40;;;;;;5054074;28;20558;-83
2022/05/12 02:22:35;;;;;;;1.30;0.80;;;23.80;41.30;;;;;;5054144;28;20456;-83
2022/05/12 02:25:04;;;;;;;1.00;1.00;;;23.70;41.40;;;;;;5055025;28;20511;-83
2022/05/12 02:27:33;;;;;;;1.57;0.90;;;23.70;41.50;;;;;;5054354;28;20425;-84
2022/05/12 02:30:01;;;;;;;1.37;1.10;;;23.60;41.50;;;;;;5054518;28;20469;-83
2022/05/12 02:32:29;;;;;;;3.00;1.20;;;23.60;41.70;;;;;;5054165;28;20532;-84
2022/05/12 02:34:58;;;;;;;1.00;0.90;;;23.70;41.60;;;;;;5054342;28;20421;-83
2022/05/12 02:37:27;;;;;;;2.20;1.10;;;23.70;41.60;;;;;;5053637;28;20421;-83
2022/05/12 02:39:55;;;;;;;1.63;1.00;;;23.60;41.60;;;;;;5053550;28;20453;-83
2022/05/12 02:42:23;;;;;;;1.17;1.07;;;23.50;41.60;;;;;;5054375;28;20456;-83
2022/05/12 02:44:52;;;;;;;1.43;1.30;;;23.50;41.60;;;;;;5053829;28;20544;-83
2022/05/12 02:47:20;;;;;;;2.30;0.97;;;23.50;42.30;;;;;;5054314;28;20470;-83
2022/05/12 02:49:48;;;;;;;1.87;1.00;;;23.50;41.70;;;;;;5054307;28;20469;-83
2022/05/12 02:52:17;;;;;;;1.10;1.00;;;23.50;41.70;;;;;;5054596;28;20481;-84
2022/05/12 02:54:45;;;;;;;1.03;0.87;;;23.40;41.50;;;;;;5053447;28;20532;-83
2022/05/12 02:57:13;;;;;;;1.10;1.00;;;23.40;41.80;;;;;;5054611;28;20482;-82
2022/05/12 02:59:41;;;;;;;1.20;1.10;;;23.40;41.80;;;;;;5057334;28;20459;-83
2022/05/12 03:02:10;;;;;;;1.20;1.10;;;23.30;41.70;;;;;;5055182;28;20500;-83
2022/05/12 03:04:38;;;;;;;1.27;0.97;;;23.30;41.70;;;;;;5054035;28;20474;-83
2022/05/12 03:07:06;;;;;;;1.30;1.10;;;23.30;41.70;;;;;;5054690;28;20443;-83
2022/05/12 03:09:36;;;;;;;1.03;0.90;;;23.30;41.80;;;;;;5054566;28;20506;-82
2022/05/12 03:12:05;;;;;;;2.00;1.10;;;23.30;41.80;;;;;;5054816;28;20493;-83
2022/05/12 03:14:33;;;;;;;1.87;1.03;;;23.30;41.80;;;;;;5054762;28;20446;-82
2022/05/12 03:17:01;;;;;;;1.53;1.23;;;23.30;41.70;;;;;;5054714;28;20477;-82
2022/05/12 03:19:31;;;;;;;1.90;0.80;;;23.20;41.80;;;;;;5054564;28;20468;-82
2022/05/12 03:21:59;;;;;;;2.10;1.10;;;23.20;41.80;;;;;;5055969;28;20413;-82
2022/05/12 03:24:27;;;;;;;1.00;1.00;;;23.20;41.80;;;;;;5055500;28;20466;-82
2022/05/12 03:26:57;;;;;;;1.87;1.00;;;23.10;41.80;;;;;;5056993;28;20452;-83
2022/05/12 03:29:25;;;;;;;2.17;1.10;;;23.10;41.80;;;;;;5057189;28;20462;-82
2022/05/12 03:31:53;;;;;;;1.20;1.00;;;23.10;42.00;;;;;;5058040;28;20478;-82
2022/05/12 03:34:21;;;;;;;2.13;0.80;;;23.10;41.90;;;;;;5054206;28;20450;-82
2022/05/12 03:36:49;;;;;;;1.50;0.93;;;23.10;41.90;;;;;;5054295;28;20504;-82
2022/05/12 03:39:17;;;;;;;1.10;0.90;;;23.10;41.80;;;;;;5056606;28;20437;-82
2022/05/12 03:41:45;;;;;;;1.00;0.90;;;23.20;41.80;;;;;;5056499;28;20885;-83
2022/05/12 03:47:01;;;;;;;1.80;1.00;;;23.10;41.70;;;;;;5056450;28;20525;-83
2022/05/12 03:49:29;;;;;;;1.00;0.90;;;23.10;41.90;;;;;;5054789;28;20474;-82
2022/05/12 03:51:57;;;;;;;2.10;1.00;;;23.10;41.80;;;;;;5055298;28;20534;-83
2022/05/12 03:54:25;;;;;;;1.27;1.00;;;23.10;42.00;;;;;;5055634;28;20466;-83
2022/05/12 03:56:54;;;;;;;1.03;0.90;;;23.10;42.00;;;;;;5052431;28;20538;-82
2022/05/12 03:59:23;;;;;;;1.37;1.00;;;23.10;41.80;;;;;;5035302;28;20473;-82
2022/05/12 04:01:51;;;;;;;1.33;0.83;;;23.00;41.90;;;;;;5034610;28;20426;-83
2022/05/12 04:04:20;;;;;;;1.10;0.93;;;23.00;41.90;;;;;;5034345;28;20430;-82
2022/05/12 04:06:48;;;;;;;2.60;1.07;;;23.00;41.90;;;;;;5034282;28;20467;-83
2022/05/12 04:09:17;;;;;;;1.20;1.10;;;23.00;42.00;;;;;;5034122;28;20920;-83
2022/05/12 04:11:45;;;;;;;2.00;1.00;;;23.00;42.00;;;;;;5034466;28;20497;-82
2022/05/12 04:14:13;;;;;;;1.77;1.07;;;22.90;42.00;;;;;;5036200;28;20451;-83
2022/05/12 04:16:44;;;;;;;1.10;1.00;;;23.00;42.00;;;;;;5054729;28;20434;-82
2022/05/12 04:19:13;;;;;;;1.23;1.13;;;23.00;42.10;;;;;;5035792;28;20467;-83
2022/05/12 04:21:41;;;;;;;1.00;1.00;;;22.90;42.00;;;;;;5035516;28;20446;-82
2022/05/12 04:24:09;;;;;;;1.10;1.00;;;22.90;42.10;;;;;;5036988;28;20481;-83
2022/05/12 04:26:38;;;;;;;1.23;0.97;;;22.90;42.00;;;;;;5034764;28;20502;-83
2022/05/12 04:29:07;;;;;;;1.20;0.90;;;22.90;42.00;;;;;;5034063;28;20459;-83
2022/05/12 04:31:35;;;;;;;0.83;0.83;;;22.90;42.10;;;;;;5035068;28;20460;-82
2022/05/12 04:36:50;;;;;;;1.20;1.10;;;22.90;42.20;;;;;;5035391;28;20835;-83
2022/05/12 04:39:18;;;;;;;0.70;0.70;;;22.80;42.10;;;;;;5035198;28;20551;-81
2022/05/12 04:41:46;;;;;;;0.93;0.80;;;22.80;42.10;;;;;;5036041;28;20538;-82
2022/05/12 04:44:14;;;;;;;1.73;1.20;;;22.80;42.20;;;;;;5038386;28;20486;-82
2022/05/12 04:46:43;;;;;;;1.23;1.10;;;22.80;42.00;;;;;;5052490;28;20560;-83
2022/05/12 04:49:13;;;;;;;0.90;0.80;;;22.80;42.00;;;;;;5060696;28;20484;-82
2022/05/12 04:51:41;;;;;;;1.10;1.00;;;22.80;42.10;;;;;;5060830;28;20467;-82
2022/05/12 04:54:10;;;;;;;2.80;0.80;;;22.80;42.20;;;;;;5062407;28;20972;-82
2022/05/12 04:56:38;;;;;;;2.30;0.93;;;22.80;42.10;;;;;;5062570;28;20449;-83
2022/05/12 04:59:07;;;;;;;1.67;0.87;;;22.80;42.10;;;;;;5060932;28;20450;-83
2022/05/12 05:01:36;;;;;;;1.10;1.00;;;22.80;42.10;;;;;;5059540;28;20450;-83
2022/05/12 05:04:04;;;;;;;1.10;0.87;;;22.80;42.10;;;;;;5057793;28;20440;-83
2022/05/12 05:06:34;;;;;;;1.20;0.90;;;22.70;42.00;;;;;;5057993;28;20467;-82
2022/05/12 05:09:02;;;;;;;2.80;0.93;;;22.80;42.20;;;;;;5058340;28;20477;-83
2022/05/12 05:11:37;;;;;;;1.40;1.00;;;22.80;42.20;;;;;;5057227;28;20457;-83
2022/05/12 05:14:06;;;;;;;3.80;1.00;;;22.70;42.00;;;;;;5057677;28;20434;-83
2022/05/12 05:16:34;;;;;;;1.00;0.97;;;22.70;42.10;;;;;;5057997;28;20466;-82
2022/05/12 05:19:02;;;;;;;1.10;0.90;;;22.70;42.10;;;;;;5056652;28;20478;-82
2022/05/12 05:21:31;;;;;;;1.20;1.10;;;22.70;42.10;;;;;;5057595;28;20454;-83
2022/05/12 05:24:00;;;;;;;0.90;0.80;;;22.70;42.00;;;;;;5057356;28;20466;-82
2022/05/12 05:26:28;;;;;;;1.33;1.20;;;22.70;42.00;;;;;;5056720;28;20501;-82
2022/05/12 05:28:56;;;;;;;2.00;0.97;;;22.70;42.00;;;;;;5057425;28;20481;-82
2022/05/12 05:31:24;;;;;;;1.27;0.90;;;22.70;42.10;;;;;;5058338;28;20429;-83
2022/05/12 05:33:52;;;;;;;4.23;1.00;;;22.70;42.10;;;;;;5059993;28;20561;-82
2022/05/12 05:36:23;;;;;;;2.97;1.27;;;22.70;42.00;;;;;;5059129;28;20450;-83
2022/05/12 05:38:51;;;;;;;2.80;1.40;;;22.70;42.00;;;;;;5057855;28;20450;-82
2022/05/12 05:41:21;;;;;;;1.47;1.37;;;22.70;42.00;;;;;;5058524;28;20475;-83
2022/05/12 05:43:49;;;;;;;1.00;0.90;;;22.70;42.00;;;;;;5056727;28;20425;-82
2022/05/12 05:46:17;;;;;;;1.03;0.93;;;22.80;42.10;;;;;;5057062;28;20512;-83
2022/05/12 05:48:50;;;;;;;1.17;1.07;;;22.80;42.00;;;;;;5058148;28;20474;-83
2022/05/12 05:54:04;;;;;;;1.17;1.07;;;22.70;42.00;;;;;;5056772;28;20496;-83
2022/05/12 05:56:34;;;;;;;1.57;1.10;;;22.80;42.10;;;;;;5056779;28;20417;-83
2022/05/12 05:59:02;;;;;;;1.57;0.90;;;22.80;42.00;;;;;;5057290;28;20453;-83
2022/05/12 06:01:30;;;;;;;1.30;1.20;;;22.80;42.00;;;;;;5056374;28;20443;-83
2022/05/12 06:03:58;;;;;;;1.20;1.10;;;22.80;41.90;;;;;;5055857;28;20454;-83
2022/05/12 06:06:26;;;;;;;1.70;1.53;;;22.80;41.90;;;;;;5054945;28;20471;-83
2022/05/12 06:08:54;;;;;;;1.43;1.33;;;22.90;41.90;;;;;;5055181;28;20446;-82
2022/05/12 06:11:23;;;;;;;1.30;1.20;;;22.90;41.80;;;;;;5055392;28;20466;-83
2022/05/12 06:13:52;;;;;;;1.27;1.17;;;22.90;41.80;;;;;;5058690;28;20476;-83
2022/05/12 06:16:20;;;;;;;1.77;1.20;;;22.90;41.80;;;;;;5056956;28;20443;-83
2022/05/12 06:18:48;;;;;;;1.37;1.27;;;22.90;41.70;;;;;;5056456;28;20428;-83
2022/05/12 06:21:18;;;;;;;1.20;1.10;;;22.90;41.60;;;;;;5057434;28;21023;-82
2022/05/12 06:23:46;;;;;;;1.00;1.00;;;23.00;41.90;;;;;;5056079;28;20442;-82
2022/05/12 06:26:14;;;;;;;1.00;1.00;;;23.00;41.70;;;;;;5054430;28;20466;-82
2022/05/12 06:28:45;;;;;;;1.40;1.30;;;23.10;41.60;;;;;;5055799;28;20449;-83
2022/05/12 06:31:15;;;;;;;1.83;1.10;;;23.10;41.60;;;;;;5054730;28;20477;-82
2022/05/12 06:33:44;;;;;;;1.30;1.20;;;23.20;41.50;;;;;;5054573;28;20446;-83
2022/05/12 06:36:12;;;;;;;1.40;1.30;;;23.30;41.40;;;;;;5054060;28;20449;-82
2022/05/12 06:38:41;;;;;;;1.53;1.27;;;23.30;41.20;;;;;;5054121;28;20471;-83
2022/05/12 06:41:09;;;;;;;2.00;1.30;;;23.40;41.20;;;;;;5053799;28;20524;-82
2022/05/12 06:43:39;;;;;;;1.50;1.30;;;23.50;41.10;;;;;;5053432;28;20417;-84
2022/05/12 06:46:07;;;;;;;1.30;1.10;;;23.50;41.20;;;;;;5054631;28;20447;-82
2022/05/12 06:48:37;;;;;;;1.20;0.90;;;23.60;41.00;;;;;;5054626;28;20452;-82
2022/05/12 06:51:05;;;;;;;0.90;0.90;;;23.70;41.00;;;;;;5059820;28;20486;-83
2022/05/12 06:53:33;;;;;;;1.30;1.20;;;23.70;41.00;;;;;;5053875;28;20417;-83
2022/05/12 06:56:08;;;;;;;1.73;0.90;;;23.80;41.00;;;;;;5054039;28;20445;-83
2022/05/12 06:58:36;;;;;;;2.30;1.20;;;23.80;40.80;;;;;;5054296;28;20508;-83
2022/05/12 07:01:05;;;;;;;1.67;1.10;;;23.90;40.80;;;;;;5053926;28;20493;-83
2022/05/12 07:03:33;;;;;;;1.27;1.20;;;24.00;40.80;;;;;;5054082;28;20508;-83
2022/05/12 07:06:03;;;;;;;1.80;1.20;;;24.10;40.70;;;;;;5053393;28;20425;-83
2022/05/12 07:08:31;;;;;;;1.77;1.30;;;24.10;40.60;;;;;;5053951;28;20448;-84
2022/05/12 07:10:59;;;;;;;1.50;1.10;;;24.20;40.50;;;;;;5054053;28;20479;-83
2022/05/12 07:13:30;;;;;;;2.30;1.20;;;24.20;40.60;;;;;;5056293;28;20425;-84
2022/05/12 07:15:58;;;;;;;1.50;0.90;;;24.30;40.80;;;;;;5054431;28;20524;-83
2022/05/12 07:18:26;;;;;;;1.30;1.20;;;24.40;40.70;;;;;;5053865;28;20450;-84
2022/05/12 07:26:47;;;;;;;1.47;1.10;;;24.60;40.40;;;;;;5036294;28;20553;-83
2022/05/12 07:29:16;;;;;;;1.10;1.00;;;24.70;40.40;;;;;;5035602;28;20440;-84
2022/05/12 07:31:44;;;;;;;1.47;0.93;;;24.80;40.40;;;;;;5035235;28;20450;-83
2022/05/12 07:34:14;;;;;;;2.00;1.10;;;24.90;40.40;;;;;;5035413;28;20802;-83
2022/05/12 07:36:44;;;;;;;1.83;1.10;;;25.00;40.40;;;;;;5037901;28;20541;-83
2022/05/12 07:39:17;;;;;;;5.07;1.00;;;25.00;40.40;;;;;;5054359;28;20533;-83
2022/05/12 07:41:45;;;;;;;2.20;1.23;;;25.20;40.50;;;;;;5053489;28;20443;-83
2022/05/12 07:44:20;;;;;;;1.70;1.00;;;25.30;40.40;;;;;;5053911;28;20446;-84
2022/05/12 07:46:50;;;;;;;1.83;0.97;;;25.30;40.20;;;;;;5053625;28;20444;-83
2022/05/12 07:49:19;;;;;;;1.20;1.10;;;25.40;40.40;;;;;;5053775;28;20497;-84
2022/05/12 07:51:49;;;;;;;1.67;0.80;;;25.50;40.30;;;;;;5054431;28;20421;-83
2022/05/12 07:54:19;;;;;;;0.90;0.90;;;25.60;40.20;;;;;;5054561;28;20543;-83
2022/05/12 07:56:47;;;;;;;2.63;1.30;;;25.60;40.20;;;;;;5055411;28;20451;-83
2022/05/12 07:59:15;;;;;;;1.90;1.00;;;25.70;40.30;;;;;;5054972;28;20470;-84
2022/05/12 08:01:43;;;;;;;2.10;1.10;;;25.80;40.20;;;;;;5055875;28;20454;-84
2022/05/12 08:04:12;;;;;;;2.60;0.70;;;25.90;40.20;;;;;;5053854;28;20442;-83
2022/05/12 08:06:41;;;;;;;1.90;1.10;;;25.90;40.20;;;;;;5054591;28;20434;-83
2022/05/12 08:09:09;;;;;;;1.00;1.00;;;26.10;40.20;;;;;;5055711;28;20965;-83
2022/05/12 08:11:39;;;;;;;1.10;1.00;;;26.20;40.10;;;;;;5043029;28;20506;-83
2022/05/12 08:14:07;;;;;;;1.10;1.00;;;26.40;40.00;;;;;;5035628;28;20444;-83
2022/05/12 08:16:36;;;;;;;0.90;0.90;;;26.60;39.90;;;;;;5036020;28;20418;-83
2022/05/12 08:19:04;;;;;;;1.33;1.07;;;26.70;39.70;;;;;;5038765;28;20429;-83
2022/05/12 08:21:32;;;;;;;1.30;1.10;;;26.80;39.60;;;;;;5039537;28;20451;-84
2022/05/12 08:24:03;;;;;;;1.60;1.00;;;26.90;39.60;;;;;;5040010;28;20443;-83
2022/05/12 08:26:33;;;;;;;1.00;0.90;;;27.10;39.60;;;;;;5040800;28;20443;-83
2022/05/12 08:29:08;;;;;;;1.30;1.20;;;27.20;39.50;;;;;;5047179;28;20504;-83
2022/05/12 08:31:48;;;;;;;2.60;0.97;;;27.30;39.20;;;;;;5059913;28;20529;-83
2022/05/12 08:34:24;;;;;;;1.67;0.90;;;27.50;39.30;;;;;;5058714;28;20439;-83
2022/05/12 08:36:55;;;;;;;1.10;1.00;;;27.60;39.00;;;;;;5059070;28;20409;-83
2022/05/12 08:39:23;;;;;;;2.90;1.00;;;27.80;39.10;;;;;;5060516;28;20505;-82
2022/05/12 08:41:58;;;;;;;1.00;0.90;;;27.90;39.00;;;;;;5059935;28;20448;-84
2022/05/12 08:44:29;;;;;;;1.97;1.10;;;28.00;38.80;;;;;;5059683;28;20439;-83
2022/05/12 08:46:58;;;;;;;1.17;1.07;;;28.10;38.70;;;;;;5058318;28;20458;-84
2022/05/12 08:49:28;;;;;;;0.90;0.90;;;28.30;38.70;;;;;;5058990;28;20440;-84
2022/05/12 08:52:04;;;;;;;0.90;0.90;;;28.40;38.40;;;;;;5058710;28;20517;-84
2022/05/12 08:54:33;;;;;;;2.70;1.00;;;28.60;38.40;;;;;;5059946;28;20944;-83
2022/05/12 08:57:04;;;;;;;1.17;1.07;;;28.80;38.30;;;;;;5060292;28;20443;-84
2022/05/12 08:59:34;;;;;;;1.93;1.10;;;29.00;38.20;;;;;;5059588;28;20466;-83
2022/05/12 09:02:19;;;;;;;0.90;0.90;;;29.10;37.90;;;;;;5058893;28;20568;-84
2022/05/12 09:05:02;;;;;;;1.00;0.90;;;29.30;37.70;;;;;;5058810;28;20465;-84
2022/05/12 09:07:33;;;;;;;1.33;1.00;;;29.60;37.60;;;;;;5058782;28;20502;-83
2022/05/12 09:10:07;;;;;;;1.00;0.90;;;29.60;37.30;;;;;;5063821;28;20497;-83
2022/05/12 09:12:41;;;;;;;1.13;1.07;;;29.60;37.10;;;;;;5061577;28;20543;-83
2022/05/12 09:15:12;;;;;;;1.00;0.90;;;29.80;37.30;;;;;;5059337;28;20450;-84
2022/05/12 09:17:43;;;;;;;2.90;0.90;;;30.00;36.90;;;;;;5056451;28;20466;-83
2022/05/12 09:20:11;;;;;;;0.97;0.97;;;30.00;36.60;;;;;;5062763;28;20496;-83
2022/05/12 09:22:41;;;;;;;1.10;1.00;;;30.00;36.80;;;;;;5065372;28;20446;-83
2022/05/12 09:25:10;;;;;;;1.43;1.00;;;30.20;36.80;;;;;;5065130;28;20448;-83
2022/05/12 09:27:40;;;;;;;0.83;0.83;;;30.40;36.70;;;;;;5066667;28;20478;-83
2022/05/12 09:30:11;;;;;;;0.93;0.90;;;30.60;36.50;;;;;;5066113;28;20494;-83
2022/05/12 09:32:40;;;;;;;1.93;1.00;;;30.60;36.00;;;;;;5067300;28;20521;-82
2022/05/12 09:35:11;;;;;;;0.70;0.70;;;30.70;36.10;;;;;;5066091;28;20447;-82
2022/05/12 09:37:42;;;;;;;1.20;1.20;;;30.80;36.00;;;;;;5065401;28;20444;-83
2022/05/12 09:40:34;;;;;;;1.10;1.10;;;31.00;36.00;;;;;;5066001;28;20467;-83
2022/05/12 09:43:04;;;;;;;0.80;0.80;;;31.10;35.70;;;;;;5066430;28;20420;-83
2022/05/12 09:45:34;;;;;;;1.47;0.70;;;31.40;35.60;;;;;;5065789;28;20439;-83
2022/05/12 09:48:21;;;;;;;1.47;1.03;;;31.50;35.30;;;;;;5065949;28;20481;-83
2022/05/12 09:50:49;;;;;;;0.83;0.83;;;31.80;35.20;;;;;;5066775;28;20468;-82
2022/05/12 09:53:25;;;;;;;0.77;0.77;;;31.90;35.00;;;;;;5066552;28;20482;-82
2022/05/12 09:56:01;;;;;;;1.63;1.00;;;32.10;34.60;;;;;;5054695;28;20518;-83
2022/05/12 09:58:32;;;;;;;0.70;0.70;;;32.30;34.50;;;;;;5040182;28;20462;-81
2022/05/12 10:01:23;;;;;;;0.83;0.80;;;32.60;34.20;;;;;;5051413;28;20557;-82
2022/05/12 10:09:25;;;;;;;0.80;0.80;;;33.00;33.20;;;;;;5058678;28;20474;-81
2022/05/12 10:11:56;;;;;;;0.90;0.90;;;32.80;33.10;;;;;;5059692;28;20451;-82
2022/05/12 10:14:30;;;;;;;1.10;1.00;;;32.90;33.60;;;;;;5060332;28;20453;-80
2022/05/12 10:17:01;;;;;;;1.10;1.10;;;33.00;33.40;;;;;;5057243;28;20447;-81
2022/05/12 10:19:29;;;;;;;1.10;0.90;;;33.10;33.00;;;;;;5054346;28;20494;-81
2022/05/12 10:22:06;;;;;;;0.97;0.90;;;33.00;32.90;;;;;;5059164;28;20481;-81
2022/05/12 10:24:39;;;;;;;0.80;0.80;;;33.00;32.90;;;;;;5058991;28;20431;-81
2022/05/12 10:27:10;;;;;;;2.47;1.10;;;33.00;32.80;;;;;;5049886;28;20467;-81
2022/05/12 10:29:43;;;;;;;0.90;0.90;;;32.90;32.70;;;;;;5038731;28;20529;-81
2022/05/12 10:32:18;;;;;;;0.80;0.80;;;32.90;32.80;;;;;;5040575;28;20440;-81
2022/05/12 10:34:48;;;;;;;0.73;0.70;;;32.80;32.70;;;;;;5041117;28;20450;-81
2022/05/12 10:37:26;;;;;;;1.07;0.97;;;33.00;32.70;;;;;;5058975;28;20470;-80
2022/05/12 10:39:57;;;;;;;0.80;0.80;;;33.00;32.50;;;;;;5058343;28;20463;-81
2022/05/12 10:42:31;;;;;;;0.80;0.80;;;32.90;32.30;;;;;;5055463;28;20451;-81
2022/05/12 10:45:12;;;;;;;0.90;0.90;;;32.80;32.50;;;;;;5055976;28;20438;-81
2022/05/12 10:47:56;;;;;;;0.87;0.80;;;32.80;32.40;;;;;;5060683;28;20461;-83
2022/05/12 10:50:29;;;;;;;0.90;0.90;;;33.20;32.80;;;;;;5044110;28;20471;-83
2022/05/12 10:53:03;;;;;;;1.07;0.80;;;33.60;32.40;;;;;;5043064;28;20447;-83
2022/05/12 10:55:44;;;;;;;1.67;0.90;;;33.70;31.50;;;;;;5042847;28;20443;-83
2022/05/12 10:58:23;;;;;;;1.17;0.67;;;33.80;32.00;;;;;;5042958;28;20509;-83
2022/05/12 11:00:57;;;;;;;0.90;0.83;;;34.20;31.70;;;;;;5053240;28;20467;-82
2022/05/12 11:03:30;;;;;;;0.90;0.73;;;34.50;31.40;;;;;;5050734;28;20450;-81
2022/05/12 11:06:00;;;;;;;0.70;0.70;;;34.60;30.90;;;;;;5055843;28;20541;-81
2022/05/12 11:08:30;;;;;;;0.87;0.87;;;34.50;30.30;;;;;;5050200;28;20512;-81
2022/05/12 11:11:00;;;;;;;1.57;1.07;;;34.40;30.90;;;;;;5051865;28;20490;-82
2022/05/12 11:13:32;;;;;;;0.73;0.73;;;34.90;30.90;;;;;;5054417;28;20474;-80
2022/05/12 11:16:02;;;;;;;5.03;0.80;;;34.90;30.00;;;;;;5036856;28;20455;-80
2022/05/12 11:18:35;;;;;;;0.87;0.80;;;34.50;30.00;;;;;;5035201;28;20452;-81
2022/05/12 11:21:12;;;;;;;0.87;0.87;;;35.50;31.00;;;;;;5037254;28;20474;-81
2022/05/12 11:24:21;;;;;;;1.57;0.80;;;37.70;28.90;;;;;;5036826;28;20513;-81
2022/05/12 11:27:15;;;;;;;0.90;0.90;;;38.80;28.10;;;;;;5036030;28;20451;-81
2022/05/12 11:29:48;;;;;;;0.70;0.70;;;40.60;26.50;;;;;;5037982;28;20515;-81
2022/05/12 11:32:22;;;;;;;1.10;0.60;;;41.70;25.30;;;;;;5034386;28;20447;-82
2022/05/12 11:34:54;;;;;;;0.77;0.60;;;42.70;24.50;;;;;;5049840;28;20450;-81
2022/05/12 11:37:36;;;;;;;3.17;0.80;;;41.50;23.40;;;;;;5053262;28;20489;-82
2022/05/12 11:40:08;;;;;;;0.60;0.60;;;41.30;25.40;;;;;;5050622;28;20492;-83
2022/05/12 11:45:47;;;;;;;0.60;0.60;;;43.80;23.00;;;;;;5035026;28;20441;-83
2022/05/12 11:48:34;;;;;;;0.50;0.50;;;44.30;23.10;;;;;;5048544;28;20453;-83
2022/05/12 11:51:27;;;;;;;0.70;0.70;;;45.20;22.40;;;;;;5038352;28;20450;-83
2022/05/12 11:53:57;;;;;;;1.13;0.60;;;45.80;21.90;;;;;;5052213;28;20445;-83
2022/05/12 11:56:40;;;;;;;0.57;0.57;;;46.20;21.40;;;;;;5050440;28;20460;-82
2022/05/12 11:59:24;;;;;;;0.50;0.50;;;45.70;20.70;;;;;;5051071;28;20501;-83
2022/05/12 12:01:55;;;;;;;0.60;0.60;;;46.20;21.40;;;;;;5051861;28;20453;-83
2022/05/12 12:04:48;;;;;;;0.70;0.70;;;45.90;21.80;;;;;;5052541;28;20445;-82
2022/05/12 12:07:35;;;;;;;0.73;0.70;;;43.80;21.90;;;;;;5023895;28;20443;-82
2022/05/12 12:10:05;;;;;;;0.57;0.57;;;41.70;23.00;;;;;;5049667;28;20461;-82
2022/05/12 12:12:57;;;;;;;0.60;0.60;;;42.00;24.90;;;;;;5052450;28;20446;-82
2022/05/12 12:16:05;;;;;;;0.60;0.60;;;43.80;23.30;;;;;;5051064;28;20442;-83
2022/05/12 12:18:56;;;;;;;1.07;0.60;;;44.80;21.80;;;;;;5052204;28;20529;-82
2022/05/12 12:21:45;;;;;;;0.50;0.50;;;45.20;22.20;;;;;;5051032;28;20442;-83
2022/05/12 12:24:36;;;;;;;1.27;0.53;;;46.00;21.60;;;;;;5029188;28;20443;-82
2022/05/12 12:27:27;;;;;;;0.97;0.60;;;46.70;21.00;;;;;;5049650;28;20502;-82
2022/05/12 12:29:55;;;;;;;0.60;0.60;;;45.80;20.20;;;;;;5054920;28;20466;-83
2022/05/12 12:32:28;;;;;;;1.43;0.60;;;43.50;21.70;;;;;;5048094;28;20952;-84
2022/05/12 12:34:57;;;;;;;0.63;0.63;;;44.10;22.80;;;;;;5051024;28;20438;-84
2022/05/12 12:37:44;;;;;;;0.90;0.60;;;45.20;21.80;;;;;;5050759;28;20452;-82
2022/05/12 12:40:45;;;;;;;1.43;0.50;;;45.80;21.20;;;;;;5048427;28;20477;-83
2022/05/12 12:43:19;;;;;;;1.43;0.50;;;45.50;21.50;;;;;;5039220;28;20488;-83
2022/05/12 12:45:48;;;;;;;1.00;0.70;;;46.00;21.00;;;;;;5051429;28;20450;-82
2022/05/12 12:48:19;;;;;;;3.53;0.60;;;45.00;20.30;;;;;;5051187;28;20469;-83
2022/05/12 12:50:50;;;;;;;0.60;0.60;;;44.60;20.70;;;;;;5052089;28;20462;-81
2022/05/12 12:56:35;;;;;;;0.80;0.80;;;44.80;20.80;;;;;;5047810;28;20504;-84
2022/05/12 12:59:05;;;;;;;0.60;0.60;;;43.80;21.20;;;;;;5053091;28;20442;-82
2022/05/12 13:01:44;;;;;;;1.33;0.60;;;43.00;23.30;;;;;;5043085;28;20465;-82
2022/05/12 13:04:12;;;;;;;0.70;0.70;;;44.30;22.60;;;;;;5058689;28;20555;-82
2022/05/12 13:06:41;;;;;;;2.00;0.60;;;43.00;21.70;;;;;;5061413;28;20481;-82
2022/05/12 13:09:12;;;;;;;1.03;0.90;;;41.30;23.00;;;;;;5050432;28;20443;-81
2022/05/12 13:11:42;;;;;;;0.80;0.70;;;41.00;24.30;;;;;;5041657;28;20518;-82
2022/05/12 13:14:14;;;;;;;4.10;0.80;;;40.80;24.10;;;;;;5041068;28;20441;-82
2022/05/12 13:16:50;;;;;;;2.30;0.70;;;40.20;24.00;;;;;;5041681;28;20478;-81
2022/05/12 13:19:27;;;;;;;0.70;0.70;;;39.60;24.90;;;;;;5061260;28;20469;-82
2022/05/12 13:21:55;;;;;;;1.80;0.77;;;39.00;24.90;;;;;;5060439;28;20474;-82
2022/05/12 13:24:24;;;;;;;0.80;0.70;;;39.00;25.70;;;;;;5061407;28;20492;-82
2022/05/12 13:26:54;;;;;;;0.70;0.70;;;38.90;25.70;;;;;;5059372;28;20447;-81
2022/05/12 13:29:23;;;;;;;0.70;0.70;;;38.60;25.60;;;;;;5060224;28;20466;-81
2022/05/12 13:31:54;;;;;;;0.60;0.60;;;38.70;26.00;;;;;;5054797;28;20473;-81
2022/05/12 13:34:25;;;;;;;0.60;0.60;;;38.70;26.00;;;;;;5042858;28;20486;-81